Time;durP1;ratioP1;P1;durP2;ratioP2;P2;SDS_P1;SDS_P2;PMS_P1;PMS_P2;Temp;Humidity;BMP_temperature;BMP_pressure;BME280_temperature;BME280_humidity;BME280_pressure;Samples;Min_cycle;Max_cycle;Signal;HPM_P1;HPM_P2
2023/12/11 00:00:14;;;;;;;;;;;;;;;;;;5137634;27;982;-69
2023/12/11 00:02:40;;;;;;;;;;;;;;;;;;5135777;27;1195;-69
2023/12/11 00:05:05;;;;;;;;;;;;;;;;;;5133562;27;1905;-67
2023/12/11 00:07:30;;;;;;;;;;;;;;;;;;5134049;27;1156;-68
2023/12/11 00:09:56;;;;;;;;;;;;;;;;;;5133054;27;1163;-68
2023/12/11 00:12:21;;;;;;;;;;;;;;;;;;5133331;27;1187;-68
2023/12/11 00:14:46;;;;;;;;;;;;;;;;;;5115384;27;1367;-67
2023/12/11 00:17:12;;;;;;;;;;;;;;;;;;5133890;27;1238;-68
2023/12/11 00:19:37;;;;;;;;;;;;;;;;;;5135369;27;1135;-68
2023/12/11 00:22:03;;;;;;;;;;;;;;;;;;5117821;27;1203;-68
2023/12/11 00:24:28;;;;;;;;;;;;;;;;;;5133784;27;1929;-68
2023/12/11 00:26:53;;;;;;;;;;;;;;;;;;5130609;27;1179;-67
2023/12/11 00:29:18;;;;;;;;;;;;;;;;;;5133246;27;1329;-68
2023/12/11 00:31:44;;;;;;;;;;;;;;;;;;5136814;27;927;-68
2023/12/11 00:34:09;;;;;;;;;;;;;;;;;;5136284;27;828;-69
2023/12/11 00:36:34;;;;;;;;;;;;;;;;;;5136463;27;910;-68
2023/12/11 00:39:00;;;;;;;;;;;;;;;;;;5136433;27;994;-68
2023/12/11 00:41:25;;;;;;;;;;;;;;;;;;5135977;27;943;-68
2023/12/11 00:43:50;;;;;;;;;;;;;;;;;;5135854;27;1898;-69
2023/12/11 00:46:22;;;;;;;;;;;;;;;;;;5136719;27;840;-69
2023/12/11 00:48:48;;;;;;;;;;;;;;;;;;5136552;27;981;-68
2023/12/11 00:51:16;;;;;;;;;;;;;;;;;;5136404;27;852;-69
2023/12/11 00:53:42;;;;;;;;;;;;;;;;;;5136414;27;797;-68
2023/12/11 00:56:07;;;;;;;;;;;;;;;;;;5136285;27;845;-68
2023/12/11 00:58:33;;;;;;;;;;;;;;;;;;5136732;27;998;-68
2023/12/11 01:00:58;;;;;;;;;;;;;;;;;;5136068;27;980;-69
2023/12/11 01:03:23;;;;;;;;;;;;;;;;;;5136182;27;1968;-69
2023/12/11 01:05:48;;;;;;;;;;;;;;;;;;5136123;27;784;-68
2023/12/11 01:08:14;;;;;;;;;;;;;;;;;;5136316;27;911;-69
2023/12/11 01:10:39;;;;;;;;;;;;;;;;;;5117822;27;1010;-68
2023/12/11 01:13:04;;;;;;;;;;;;;;;;;;5136753;27;842;-68
2023/12/11 01:15:30;;;;;;;;;;;;;;;;;;5135935;27;777;-69
2023/12/11 01:17:55;;;;;;;;;;;;;;;;;;5117907;27;833;-68
2023/12/11 01:20:20;;;;;;;;;;;;;;;;;;5136176;27;918;-68
2023/12/11 01:22:46;;;;;;;;;;;;;;;;;;5136049;27;919;-68
2023/12/11 01:25:11;;;;;;;;;;;;;;;;;;5117116;27;1894;-68
2023/12/11 01:27:37;;;;;;;;;;;;;;;;;;5117511;27;921;-68
2023/12/11 01:30:02;;;;;;;;;;;;;;;;;;5135928;27;981;-68
2023/12/11 01:32:27;;;;;;;;;;;;;;;;;;5135623;27;1124;-68
2023/12/11 01:34:53;;;;;;;;;;;;;;;;;;5135345;27;954;-68
2023/12/11 01:37:18;;;;;;;;;;;;;;;;;;5135463;27;855;-68
2023/12/11 01:39:44;;;;;;;;;;;;;;;;;;5134717;27;929;-68
2023/12/11 01:42:09;;;;;;;;;;;;;;;;;;5135261;27;979;-69
2023/12/11 01:44:36;;;;;;;;;;;;;;;;;;5135918;27;1968;-69
2023/12/11 01:47:01;;;;;;;;;;;;;;;;;;5135576;27;835;-68
2023/12/11 01:49:26;;;;;;;;;;;;;;;;;;5135093;27;880;-69
2023/12/11 01:51:52;;;;;;;;;;;;;;;;;;5135315;27;1546;-68
2023/12/11 01:54:19;;;;;;;;;;;;;;;;;;5135262;27;1082;-69
2023/12/11 01:56:44;;;;;;;;;;;;;;;;;;5135038;27;983;-69
2023/12/11 01:59:11;;;;;;;;;;;;;;;;;;5116683;27;996;-68
2023/12/11 02:01:36;;;;;;;;;;;;;;;;;;5135222;27;831;-69
2023/12/11 02:04:02;;;;;;;;;;;;;;;;;;5135828;27;1952;-69
2023/12/11 02:06:27;;;;;;;;;;;;;;;;;;5134600;27;875;-68
2023/12/11 02:08:52;;;;;;;;;;;;;;;;;;5135010;27;900;-68
2023/12/11 02:11:18;;;;;;;;;;;;;;;;;;5135120;27;896;-69
2023/12/11 02:13:43;;;;;;;;;;;;;;;;;;5116390;28;911;-69
2023/12/11 02:16:18;;;;;;;;;;;;;;;;;;5134906;28;925;-68
2023/12/11 02:18:43;;;;;;;;;;;;;;;;;;5116397;28;857;-68
2023/12/11 02:21:09;;;;;;;;;;;;;;;;;;5134719;27;835;-69
2023/12/11 02:23:40;;;;;;;;;;;;;;;;;;5134788;27;1901;-68
2023/12/11 02:26:16;;;;;;;;;;;;;;;;;;5135101;27;935;-68
2023/12/11 02:28:41;;;;;;;;;;;;;;;;;;5134849;27;1185;-62
2023/12/11 02:31:06;;;;;;;;;;;;;;;;;;5134940;28;836;-61
2023/12/11 02:33:32;;;;;;;;;;;;;;;;;;5134773;28;962;-62
2023/12/11 02:35:57;;;;;;;;;;;;;;;;;;5134583;27;840;-61
2023/12/11 02:38:22;;;;;;;;;;;;;;;;;;5134545;27;935;-62
2023/12/11 02:40:47;;;;;;;;;;;;;;;;;;5135225;27;867;-62
2023/12/11 02:43:13;;;;;;;;;;;;;;;;;;5134688;28;1959;-62
2023/12/11 02:45:38;;;;;;;;;;;;;;;;;;5135038;27;1030;-61
2023/12/11 02:48:03;;;;;;;;;;;;;;;;;;5134829;27;990;-61
2023/12/11 02:50:29;;;;;;;;;;;;;;;;;;5136662;27;828;-61
2023/12/11 02:52:56;;;;;;;;;;;;;;;;;;5139095;27;848;-61
2023/12/11 02:55:21;;;;;;;;;;;;;;;;;;5138205;27;938;-61
2023/12/11 02:57:46;;;;;;;;;;;;;;;;;;5138248;27;915;-61
2023/12/11 03:00:12;;;;;;;;;;;;;;;;;;5138731;27;824;-62
2023/12/11 03:02:37;;;;;;;;;;;;;;;;;;5138484;27;851;-62
2023/12/11 03:05:02;;;;;;;;;;;;;;;;;;5137925;27;1958;-62
2023/12/11 03:07:28;;;;;;;;;;;;;;;;;;5138591;27;940;-62
2023/12/11 03:09:53;;;;;;;;;;;;;;;;;;5138561;27;990;-61
2023/12/11 03:12:18;;;;;;;;;;;;;;;;;;5139329;27;840;-61
2023/12/11 03:14:43;;;;;;;;;;;;;;;;;;5138632;27;858;-61
2023/12/11 03:17:09;;;;;;;;;;;;;;;;;;5138392;27;990;-62
2023/12/11 03:19:34;;;;;;;;;;;;;;;;;;5138360;27;926;-62
2023/12/11 03:22:00;;;;;;;;;;;;;;;;;;5138156;27;887;-62
2023/12/11 03:24:25;;;;;;;;;;;;;;;;;;5138044;27;1910;-61
2023/12/11 03:26:50;;;;;;;;;;;;;;;;;;5138099;27;855;-61
2023/12/11 03:29:16;;;;;;;;;;;;;;;;;;5137645;27;887;-62
2023/12/11 03:31:41;;;;;;;;;;;;;;;;;;5137650;27;898;-62
2023/12/11 03:34:06;;;;;;;;;;;;;;;;;;5138179;27;856;-62
2023/12/11 03:36:31;;;;;;;;;;;;;;;;;;5138312;27;1214;-61
2023/12/11 03:38:57;;;;;;;;;;;;;;;;;;5138815;27;808;-61
2023/12/11 03:41:22;;;;;;;;;;;;;;;;;;5138332;27;918;-62
2023/12/11 03:43:47;;;;;;;;;;;;;;;;;;5119385;27;1947;-62
2023/12/11 03:46:12;;;;;;;;;;;;;;;;;;5137648;27;1038;-61
2023/12/11 03:48:38;;;;;;;;;;;;;;;;;;5137587;27;955;-62
2023/12/11 03:51:03;;;;;;;;;;;;;;;;;;5137499;27;934;-61
2023/12/11 03:53:28;;;;;;;;;;;;;;;;;;5137828;27;924;-62
2023/12/11 03:55:54;;;;;;;;;;;;;;;;;;5119243;27;1503;-62
2023/12/11 03:58:19;;;;;;;;;;;;;;;;;;5137608;27;1010;-62
2023/12/11 04:00:44;;;;;;;;;;;;;;;;;;5137307;27;812;-62
2023/12/11 04:03:10;;;;;;;;;;;;;;;;;;5136576;27;892;-62
2023/12/11 04:05:35;;;;;;;;;;;;;;;;;;5137206;27;1957;-62
2023/12/11 04:08:00;;;;;;;;;;;;;;;;;;5136835;27;684;-62
2023/12/11 04:10:26;;;;;;;;;;;;;;;;;;5137024;27;977;-63
2023/12/11 04:12:51;;;;;;;;;;;;;;;;;;5137000;27;970;-61
2023/12/11 04:15:16;;;;;;;;;;;;;;;;;;5118223;27;1441;-62
2023/12/11 04:17:43;;;;;;;;;;;;;;;;;;5136623;27;816;-61
2023/12/11 04:20:08;;;;;;;;;;;;;;;;;;5136603;27;821;-61
2023/12/11 04:22:34;;;;;;;;;;;;;;;;;;5137221;27;1043;-61
2023/12/11 04:24:59;;;;;;;;;;;;;;;;;;5137146;27;1893;-61
2023/12/11 04:27:24;;;;;;;;;;;;;;;;;;5118077;27;967;-61
2023/12/11 04:29:49;;;;;;;;;;;;;;;;;;5118780;27;887;-61
2023/12/11 04:32:15;;;;;;;;;;;;;;;;;;5133312;27;1265;-62
2023/12/11 04:34:40;;;;;;;;;;;;;;;;;;5132145;27;1100;-62
2023/12/11 04:37:05;;;;;;;;;;;;;;;;;;5135365;27;1214;-63
2023/12/11 04:39:31;;;;;;;;;;;;;;;;;;5136270;27;962;-61
2023/12/11 04:41:56;;;;;;;;;;;;;;;;;;5136583;27;1098;-61
2023/12/11 04:44:22;;;;;;;;;;;;;;;;;;5136378;27;1910;-61
2023/12/11 04:46:47;;;;;;;;;;;;;;;;;;5118049;27;2296;-61
2023/12/11 04:49:12;;;;;;;;;;;;;;;;;;5136416;27;808;-62
2023/12/11 04:51:37;;;;;;;;;;;;;;;;;;5118396;27;915;-61
2023/12/11 04:54:03;;;;;;;;;;;;;;;;;;5136444;27;1221;-60
2023/12/11 04:56:28;;;;;;;;;;;;;;;;;;5136912;27;1018;-61
2023/12/11 04:58:54;;;;;;;;;;;;;;;;;;5136645;27;997;-62
2023/12/11 05:01:19;;;;;;;;;;;;;;;;;;5136230;27;1242;-68
2023/12/11 05:03:44;;;;;;;;;;;;;;;;;;5131740;27;1897;-68
2023/12/11 05:06:10;;;;;;;;;;;;;;;;;;5113674;27;1285;-68
2023/12/11 05:08:35;;;;;;;;;;;;;;;;;;5134124;27;1187;-68
2023/12/11 05:11:00;;;;;;;;;;;;;;;;;;5133115;27;1247;-69
2023/12/11 05:13:26;;;;;;;;;;;;;;;;;;5132299;27;1131;-69
2023/12/11 05:15:51;;;;;;;;;;;;;;;;;;5133882;27;1116;-69
2023/12/11 05:18:16;;;;;;;;;;;;;;;;;;5133429;27;1159;-68
2023/12/11 05:20:42;;;;;;;;;;;;;;;;;;5132752;27;1137;-69
2023/12/11 05:23:07;;;;;;;;;;;;;;;;;;5132935;27;1226;-62
2023/12/11 05:25:32;;;;;;;;;;;;;;;;;;5135373;27;1965;-63
2023/12/11 05:27:58;;;;;;;;;;;;;;;;;;5135742;27;895;-63
2023/12/11 05:30:23;;;;;;;;;;;;;;;;;;5135949;27;926;-63
2023/12/11 05:32:48;;;;;;;;;;;;;;;;;;5135247;27;907;-63
2023/12/11 05:35:13;;;;;;;;;;;;;;;;;;5135243;27;879;-62
2023/12/11 05:37:39;;;;;;;;;;;;;;;;;;5135209;27;836;-62
2023/12/11 05:40:05;;;;;;;;;;;;;;;;;;5135893;27;851;-62
2023/12/11 05:42:31;;;;;;;;;;;;;;;;;;5135311;27;940;-61
2023/12/11 05:44:56;;;;;;;;;;;;;;;;;;5133422;27;1953;-62
2023/12/11 05:47:21;;;;;;;;;;;;;;;;;;5134265;27;1143;-62
2023/12/11 05:49:46;;;;;;;;;;;;;;;;;;5135622;27;903;-63
2023/12/11 05:52:12;;;;;;;;;;;;;;;;;;5135177;27;906;-62
2023/12/11 05:54:37;;;;;;;;;;;;;;;;;;5135024;27;840;-63
2023/12/11 05:57:02;;;;;;;;;;;;;;;;;;5135086;27;872;-62
2023/12/11 05:59:28;;;;;;;;;;;;;;;;;;5135375;27;1130;-63
2023/12/11 06:01:53;;;;;;;;;;;;;;;;;;5135049;27;942;-63
2023/12/11 06:04:18;;;;;;;;;;;;;;;;;;5134851;27;1973;-63
2023/12/11 06:06:43;;;;;;;;;;;;;;;;;;5134934;27;1033;-63
2023/12/11 06:09:09;;;;;;;;;;;;;;;;;;5135260;27;804;-62
2023/12/11 06:11:34;;;;;;;;;;;;;;;;;;5135339;27;863;-63
2023/12/11 06:14:00;;;;;;;;;;;;;;;;;;5135402;28;805;-63
2023/12/11 06:16:25;;;;;;;;;;;;;;;;;;5134967;28;840;-63
2023/12/11 06:18:50;;;;;;;;;;;;;;;;;;5134998;28;808;-63
2023/12/11 06:21:23;;;;;;;;;;;;;;;;;;5135256;28;883;-62
2023/12/11 06:23:48;;;;;;;;;;;;;;;;;;5116354;27;1890;-63
2023/12/11 06:26:28;;;;;;;;;;;;;;;;;;5138411;27;929;-62
2023/12/11 06:28:53;;;;;;;;;;;;;;;;;;5138793;27;833;-62
2023/12/11 06:31:18;;;;;;;;;;;;;;;;;;5139296;27;982;-63
2023/12/11 06:33:43;;;;;;;;;;;;;;;;;;5139424;27;966;-63
2023/12/11 06:36:09;;;;;;;;;;;;;;;;;;5120810;27;843;-62
2023/12/11 06:38:34;;;;;;;;;;;;;;;;;;5139322;27;900;-62
2023/12/11 06:41:00;;;;;;;;;;;;;;;;;;5137115;27;1194;-69
2023/12/11 06:43:25;;;;;;;;;;;;;;;;;;5135949;27;1915;-68
2023/12/11 06:45:50;;;;;;;;;;;;;;;;;;5136405;27;1183;-68
2023/12/11 06:48:15;;;;;;;;;;;;;;;;;;5118766;27;1222;-68
2023/12/11 06:50:41;;;;;;;;;;;;;;;;;;5136314;27;1155;-69
2023/12/11 06:53:06;;;;;;;;;;;;;;;;;;5136366;27;1223;-69
2023/12/11 06:55:31;;;;;;;;;;;;;;;;;;5135896;27;1148;-69
2023/12/11 06:57:57;;;;;;;;;;;;;;;;;;5135858;27;1069;-69
2023/12/11 07:00:22;;;;;;;;;;;;;;;;;;5135717;27;1127;-69
2023/12/11 07:02:47;;;;;;;;;;;;;;;;;;5136060;27;1136;-70
2023/12/11 07:05:13;;;;;;;;;;;;;;;;;;5134804;27;1963;-70
2023/12/11 07:07:38;;;;;;;;;;;;;;;;;;5134275;27;1235;-69
2023/12/11 07:10:05;;;;;;;;;;;;;;;;;;5132867;27;1132;-69
2023/12/11 07:12:30;;;;;;;;;;;;;;;;;;5117180;27;2492;-70
2023/12/11 07:14:56;;;;;;;;;;;;;;;;;;5134860;27;1214;-69
2023/12/11 07:17:21;;;;;;;;;;;;;;;;;;5134574;27;1159;-70
2023/12/11 07:19:47;;;;;;;;;;;;;;;;;;5134373;27;1214;-69
2023/12/11 07:22:12;;;;;;;;;;;;;;;;;;5134737;27;1151;-70
2023/12/11 07:24:37;;;;;;;;;;;;;;;;;;5134737;27;1905;-70
2023/12/11 07:27:03;;;;;;;;;;;;;;;;;;5097083;28;1236;-70
2023/12/11 07:29:30;;;;;;;;;;;;;;;;;;5117083;28;974;-70
2023/12/11 07:31:56;;;;;;;;;;;;;;;;;;5117559;28;1224;-70
2023/12/11 07:34:21;;;;;;;;;;;;;;;;;;5117367;28;951;-69
2023/12/11 07:36:48;;;;;;;;;;;;;;;;;;5115893;28;859;-69
2023/12/11 07:39:13;;;;;;;;;;;;;;;;;;5117158;28;1058;-69
2023/12/11 07:41:39;;;;;;;;;;;;;;;;;;5117719;28;816;-69
2023/12/11 07:44:04;;;;;;;;;;;;;;;;;;5117315;28;1898;-69
2023/12/11 07:46:30;;;;;;;;;;;;;;;;;;5098996;28;903;-70
2023/12/11 07:48:55;;;;;;;;;;;;;;;;;;5098989;28;1334;-68
2023/12/11 07:51:23;;;;;;;;;;;;;;;;;;5116874;28;938;-69
2023/12/11 07:53:48;;;;;;;;;;;;;;;;;;5117540;28;900;-69
2023/12/11 07:56:17;;;;;;;;;;;;;;;;;;5117274;28;1291;-70
2023/12/11 07:58:42;;;;;;;;;;;;;;;;;;5117068;28;935;-69
2023/12/11 08:01:08;;;;;;;;;;;;;;;;;;5116950;28;931;-69
2023/12/11 08:03:33;;;;;;;;;;;;;;;;;;5117149;28;1957;-70
2023/12/11 08:06:00;;;;;;;;;;;;;;;;;;5133901;27;1231;-69
2023/12/11 08:08:25;;;;;;;;;;;;;;;;;;5138421;27;1210;-70
2023/12/11 08:10:50;;;;;;;;;;;;;;;;;;5138323;27;1175;-70
2023/12/11 08:13:16;;;;;;;;;;;;;;;;;;5134442;27;1183;-70
2023/12/11 08:15:41;;;;;;;;;;;;;;;;;;5133926;27;1223;-70
2023/12/11 08:18:06;;;;;;;;;;;;;;;;;;5132802;27;1234;-70
2023/12/11 08:20:32;;;;;;;;;;;;;;;;;;5115256;27;1324;-70
2023/12/11 08:22:57;;;;;;;;;;;;;;;;;;5115064;27;1582;-69
2023/12/11 08:25:22;;;;;;;;;;;;;;;;;;5136564;27;1893;-63
2023/12/11 08:27:48;;;;;;;;;;;;;;;;;;5136921;27;936;-62
2023/12/11 08:30:13;;;;;;;;;;;;;;;;;;5136838;27;789;-63
2023/12/11 08:32:39;;;;;;;;;;;;;;;;;;5137008;27;863;-63
2023/12/11 08:35:05;;;;;;;;;;;;;;;;;;5136787;27;879;-63
2023/12/11 08:37:30;;;;;;;;;;;;;;;;;;5118277;27;821;-63
2023/12/11 08:39:55;;;;;;;;;;;;;;;;;;5136757;27;824;-70
2023/12/11 08:42:21;;;;;;;;;;;;;;;;;;5117641;27;1486;-70
2023/12/11 08:44:46;;;;;;;;;;;;;;;;;;5135279;27;1897;-70
2023/12/11 08:47:11;;;;;;;;;;;;;;;;;;5136189;27;955;-70
2023/12/11 08:49:37;;;;;;;;;;;;;;;;;;5136717;27;904;-70
2023/12/11 08:52:02;;;;;;;;;;;;;;;;;;5136164;27;879;-70
2023/12/11 08:54:27;;;;;;;;;;;;;;;;;;5136118;27;887;-70
2023/12/11 08:56:53;;;;;;;;;;;;;;;;;;5136857;27;895;-70
2023/12/11 08:59:18;;;;;;;;;;;;;;;;;;5135934;27;900;-68
2023/12/11 09:01:43;;;;;;;;;;;;;;;;;;5117536;27;1238;-70
2023/12/11 09:04:08;;;;;;;;;;;;;;;;;;5135753;27;1963;-70
2023/12/11 09:06:34;;;;;;;;;;;;;;;;;;5132416;27;1195;-70
2023/12/11 09:08:59;;;;;;;;;;;;;;;;;;5131404;27;1214;-69
2023/12/11 09:11:25;;;;;;;;;;;;;;;;;;5131106;27;1108;-70
2023/12/11 09:13:50;;;;;;;;;;;;;;;;;;5132203;27;1124;-69
2023/12/11 09:16:16;;;;;;;;;;;;;;;;;;5131484;27;1136;-70
2023/12/11 09:18:41;;;;;;;;;;;;;;;;;;5132411;27;1155;-69
2023/12/11 09:21:06;;;;;;;;;;;;;;;;;;5132025;27;1148;-69
2023/12/11 09:23:32;;;;;;;;;;;;;;;;;;5113772;27;1964;-69
2023/12/11 09:25:57;;;;;;;;;;;;;;;;;;5134976;27;1187;-70
2023/12/11 09:28:22;;;;;;;;;;;;;;;;;;5135305;27;826;-70
2023/12/11 09:30:48;;;;;;;;;;;;;;;;;;5136097;27;960;-68
2023/12/11 09:33:13;;;;;;;;;;;;;;;;;;5117430;27;714;-69
2023/12/11 09:35:39;;;;;;;;;;;;;;;;;;5135985;27;824;-69
2023/12/11 09:38:04;;;;;;;;;;;;;;;;;;5136135;27;887;-69
2023/12/11 09:40:29;;;;;;;;;;;;;;;;;;5136019;27;907;-70
2023/12/11 09:42:55;;;;;;;;;;;;;;;;;;5135213;27;950;-70
2023/12/11 09:45:24;;;;;;;;;;;;;;;;;;5116794;27;1917;-69
2023/12/11 09:47:51;;;;;;;;;;;;;;;;;;5135439;27;860;-70
2023/12/11 09:50:17;;;;;;;;;;;;;;;;;;5135182;27;913;-68
2023/12/11 09:52:42;;;;;;;;;;;;;;;;;;5135037;27;921;-70
2023/12/11 09:55:08;;;;;;;;;;;;;;;;;;5135599;27;818;-69
2023/12/11 09:57:34;;;;;;;;;;;;;;;;;;5134890;27;901;-68
2023/12/11 09:59:59;;;;;;;;;;;;;;;;;;5134491;27;835;-69
2023/12/11 10:02:25;;;;;;;;;;;;;;;;;;5134871;27;859;-69
2023/12/11 10:05:03;;;;;;;;;;;;;;;;;;5135379;27;1974;-70
2023/12/11 10:07:28;;;;;;;;;;;;;;;;;;5132223;27;1300;-69
2023/12/11 10:09:54;;;;;;;;;;;;;;;;;;5129622;27;1047;-69
2023/12/11 10:12:19;;;;;;;;;;;;;;;;;;5130704;27;1226;-69
2023/12/11 10:15:01;;;;;;;;;;;;;;;;;;5131847;27;1195;-68
2023/12/11 10:17:26;;;;;;;;;;;;;;;;;;5131992;28;1128;-68
2023/12/11 10:19:51;;;;;;;;;;;;;;;;;;5131452;28;1218;-68
2023/12/11 10:22:32;;;;;;;;;;;;;;;;;;5131688;28;1112;-69
2023/12/11 10:24:58;;;;;;;;;;;;;;;;;;5133402;28;2030;-69
2023/12/11 10:27:24;;;;;;;;;;;;;;;;;;5135170;28;917;-63
2023/12/11 10:30:12;;;;;;;;;;;;;;;;;;5135487;28;871;-63
2023/12/11 10:32:38;;;;;;;;;;;;;;;;;;5135154;28;820;-63
2023/12/11 10:35:05;;;;;;;;;;;;;;;;;;5134463;28;865;-63
2023/12/11 10:37:31;;;;;;;;;;;;;;;;;;5134867;28;817;-64
2023/12/11 10:39:56;;;;;;;;;;;;;;;;;;5134845;28;820;-63
2023/12/11 10:42:22;;;;;;;;;;;;;;;;;;5134677;28;963;-63
2023/12/11 10:44:48;;;;;;;;;;;;;;;;;;5134717;28;1901;-63
2023/12/11 10:47:13;;;;;;;;;;;;;;;;;;5134604;28;1149;-62
2023/12/11 10:49:42;;;;;;;;;;;;;;;;;;5134633;28;658;-62
2023/12/11 10:52:07;;;;;;;;;;;;;;;;;;5134695;28;899;-62
2023/12/11 10:54:34;;;;;;;;;;;;;;;;;;5134218;28;963;-62
2023/12/11 10:57:01;;;;;;;;;;;;;;;;;;5134611;28;847;-62
2023/12/11 10:59:28;;;;;;;;;;;;;;;;;;5134335;28;1162;-63
2023/12/11 11:01:54;;;;;;;;;;;;;;;;;;5134147;28;985;-62
2023/12/11 11:04:20;;;;;;;;;;;;;;;;;;5134186;28;1894;-62
2023/12/11 11:06:54;;;;;;;;;;;;;;;;;;5133799;28;1171;-62
2023/12/11 11:09:28;;;;;;;;;;;;;;;;;;5129046;28;1195;-63
2023/12/11 11:11:57;;;;;;;;;;;;;;;;;;5129613;27;1202;-63
2023/12/11 11:14:41;;;;;;;;;;;;;;;;;;5134138;27;1151;-64
2023/12/11 11:17:06;;;;;;;;;;;;;;;;;;5134232;27;1199;-62
2023/12/11 11:19:32;;;;;;;;;;;;;;;;;;5134330;27;1214;-62
2023/12/11 11:22:17;;;;;;;;;;;;;;;;;;5134319;27;1222;-63
2023/12/11 11:24:42;;;;;;;;;;;;;;;;;;5116078;27;1977;-63
2023/12/11 11:27:28;;;;;;;;;;;;;;;;;;5137733;27;970;-63
2023/12/11 11:29:53;;;;;;;;;;;;;;;;;;5137347;27;1550;-63
2023/12/11 11:32:19;;;;;;;;;;;;;;;;;;5137699;27;1041;-63
2023/12/11 11:34:45;;;;;;;;;;;;;;;;;;5137425;27;894;-63
2023/12/11 11:37:17;;;;;;;;;;;;;;;;;;5137178;27;957;-62
2023/12/11 11:39:57;;;;;;;;;;;;;;;;;;5136878;27;830;-63
2023/12/11 11:42:23;;;;;;;;;;;;;;;;;;5137590;27;967;-68
2023/12/11 11:44:53;;;;;;;;;;;;;;;;;;5137596;27;1889;-68
2023/12/11 11:47:19;;;;;;;;;;;;;;;;;;5137698;27;1065;-69
2023/12/11 11:49:44;;;;;;;;;;;;;;;;;;5137441;27;883;-70
2023/12/11 11:52:11;;;;;;;;;;;;;;;;;;5137377;27;860;-69
2023/12/11 11:54:36;;;;;;;;;;;;;;;;;;5119704;27;895;-68
2023/12/11 11:57:02;;;;;;;;;;;;;;;;;;5137306;27;839;-69
2023/12/11 11:59:28;;;;;;;;;;;;;;;;;;5118845;27;1088;-69
2023/12/11 12:01:58;;;;;;;;;;;;;;;;;;5137832;27;1042;-68
2023/12/11 12:04:30;;;;;;;;;;;;;;;;;;5138056;27;1964;-68
2023/12/11 12:06:56;;;;;;;;;;;;;;;;;;5137781;27;820;-68
2023/12/11 12:09:21;;;;;;;;;;;;;;;;;;5135073;27;1249;-69
2023/12/11 12:11:46;;;;;;;;;;;;;;;;;;5136898;27;1005;-70
2023/12/11 12:14:12;;;;;;;;;;;;;;;;;;5137424;27;994;-69
2023/12/11 12:16:37;;;;;;;;;;;;;;;;;;5136977;27;919;-70
2023/12/11 12:19:03;;;;;;;;;;;;;;;;;;5116164;27;1152;-69
2023/12/11 12:21:28;;;;;;;;;;;;;;;;;;5114366;27;1781;-69
2023/12/11 12:24:00;;;;;;;;;;;;;;;;;;5114193;27;1902;-68
2023/12/11 12:26:26;;;;;;;;;;;;;;;;;;5135504;27;825;-70
2023/12/11 12:28:51;;;;;;;;;;;;;;;;;;5135729;27;889;-70
2023/12/11 12:31:16;;;;;;;;;;;;;;;;;;5136407;27;927;-69
2023/12/11 12:33:42;;;;;;;;;;;;;;;;;;5136262;27;1173;-68
2023/12/11 12:36:07;;;;;;;;;;;;;;;;;;5136727;27;899;-70
2023/12/11 12:38:33;;;;;;;;;;;;;;;;;;5137053;27;855;-69
2023/12/11 12:40:58;;;;;;;;;;;;;;;;;;5137146;27;919;-68
2023/12/11 12:43:24;;;;;;;;;;;;;;;;;;5136661;27;906;-70
2023/12/11 12:45:49;;;;;;;;;;;;;;;;;;5136251;27;1913;-68
2023/12/11 12:48:15;;;;;;;;;;;;;;;;;;5136516;27;1014;-68
2023/12/11 12:50:40;;;;;;;;;;;;;;;;;;5118082;27;1045;-68
2023/12/11 12:53:06;;;;;;;;;;;;;;;;;;5137036;27;831;-68
2023/12/11 12:55:32;;;;;;;;;;;;;;;;;;5136091;27;864;-69
2023/12/11 12:57:57;;;;;;;;;;;;;;;;;;5135889;27;915;-69
2023/12/11 13:00:23;;;;;;;;;;;;;;;;;;5135867;27;869;-69
2023/12/11 13:02:49;;;;;;;;;;;;;;;;;;5136213;27;840;-69
2023/12/11 13:05:14;;;;;;;;;;;;;;;;;;5135443;27;1974;-69
2023/12/11 13:07:40;;;;;;;;;;;;;;;;;;5136304;27;813;-69
2023/12/11 13:10:10;;;;;;;;;;;;;;;;;;5134368;27;1155;-62
2023/12/11 13:12:35;;;;;;;;;;;;;;;;;;5131881;27;1144;-62
2023/12/11 13:15:01;;;;;;;;;;;;;;;;;;5114286;27;1184;-62
2023/12/11 13:17:26;;;;;;;;;;;;;;;;;;5132129;27;1282;-63
2023/12/11 13:19:51;;;;;;;;;;;;;;;;;;5132431;27;1171;-64
2023/12/11 13:22:17;;;;;;;;;;;;;;;;;;5132904;27;1222;-63
2023/12/11 13:24:42;;;;;;;;;;;;;;;;;;5133658;27;1913;-63
2023/12/11 13:27:07;;;;;;;;;;;;;;;;;;5136221;27;847;-62
2023/12/11 13:29:33;;;;;;;;;;;;;;;;;;5135300;27;877;-63
2023/12/11 13:31:59;;;;;;;;;;;;;;;;;;5135267;27;995;-62
2023/12/11 13:34:25;;;;;;;;;;;;;;;;;;5134571;27;1007;-63
2023/12/11 13:36:50;;;;;;;;;;;;;;;;;;5135187;27;872;-62
2023/12/11 13:39:16;;;;;;;;;;;;;;;;;;5135166;27;792;-63
2023/12/11 13:41:41;;;;;;;;;;;;;;;;;;5135253;27;896;-63
2023/12/11 13:44:07;;;;;;;;;;;;;;;;;;5134802;27;1905;-63
2023/12/11 13:46:32;;;;;;;;;;;;;;;;;;5135131;27;885;-64
2023/12/11 13:48:57;;;;;;;;;;;;;;;;;;5135061;27;844;-62
2023/12/11 13:51:22;;;;;;;;;;;;;;;;;;5134859;27;970;-62
2023/12/11 13:53:48;;;;;;;;;;;;;;;;;;5116764;27;1341;-63
2023/12/11 13:56:13;;;;;;;;;;;;;;;;;;5134916;27;816;-62
2023/12/11 13:58:38;;;;;;;;;;;;;;;;;;5116471;27;1007;-62
2023/12/11 14:01:04;;;;;;;;;;;;;;;;;;5135328;27;898;-63
2023/12/11 14:03:30;;;;;;;;;;;;;;;;;;5134283;27;805;-62
2023/12/11 14:05:55;;;;;;;;;;;;;;;;;;5134450;27;1918;-62
2023/12/11 14:08:20;;;;;;;;;;;;;;;;;;5134544;27;851;-63
2023/12/11 14:10:46;;;;;;;;;;;;;;;;;;5133830;27;1254;-63
2023/12/11 14:13:12;;;;;;;;;;;;;;;;;;5130296;27;1267;-62
2023/12/11 14:15:42;;;;;;;;;;;;;;;;;;5130479;28;1100;-65
2023/12/11 14:18:07;;;;;;;;;;;;;;;;;;5130823;28;1202;-63
2023/12/11 14:20:33;;;;;;;;;;;;;;;;;;5131129;27;1147;-63
2023/12/11 14:22:58;;;;;;;;;;;;;;;;;;5134352;28;1175;-63
2023/12/11 14:25:25;;;;;;;;;;;;;;;;;;5134420;28;1910;-64
2023/12/11 14:27:51;;;;;;;;;;;;;;;;;;5134232;27;909;-63
2023/12/11 14:30:16;;;;;;;;;;;;;;;;;;5134541;28;915;-63
2023/12/11 14:32:41;;;;;;;;;;;;;;;;;;5134458;28;785;-63
2023/12/11 14:35:07;;;;;;;;;;;;;;;;;;5134814;28;839;-62
2023/12/11 14:37:32;;;;;;;;;;;;;;;;;;5134436;27;948;-64
2023/12/11 14:39:58;;;;;;;;;;;;;;;;;;5134298;28;965;-63
2023/12/11 14:42:23;;;;;;;;;;;;;;;;;;5115646;28;1070;-62
2023/12/11 14:44:49;;;;;;;;;;;;;;;;;;5134388;28;1975;-63
2023/12/11 14:47:16;;;;;;;;;;;;;;;;;;5119047;27;849;-63
2023/12/11 14:49:41;;;;;;;;;;;;;;;;;;5138879;27;847;-64
2023/12/11 14:52:06;;;;;;;;;;;;;;;;;;5138744;27;820;-63
2023/12/11 14:54:31;;;;;;;;;;;;;;;;;;5138440;27;942;-63
2023/12/11 14:56:57;;;;;;;;;;;;;;;;;;5138194;27;1041;-61
2023/12/11 14:59:23;;;;;;;;;;;;;;;;;;5138120;27;908;-62
2023/12/11 15:01:48;;;;;;;;;;;;;;;;;;5138016;27;890;-62
2023/12/11 15:04:14;;;;;;;;;;;;;;;;;;5138815;27;1893;-63
2023/12/11 15:06:40;;;;;;;;;;;;;;;;;;5138999;27;843;-63
2023/12/11 15:09:06;;;;;;;;;;;;;;;;;;5138884;27;883;-63
2023/12/11 15:11:33;;;;;;;;;;;;;;;;;;5137354;27;1288;-63
2023/12/11 15:13:59;;;;;;;;;;;;;;;;;;5132877;27;1081;-63
2023/12/11 15:16:25;;;;;;;;;;;;;;;;;;5134410;27;1175;-63
2023/12/11 15:18:50;;;;;;;;;;;;;;;;;;5134472;27;1136;-63
2023/12/11 15:21:18;;;;;;;;;;;;;;;;;;5132141;27;1064;-63
2023/12/11 15:23:43;;;;;;;;;;;;;;;;;;5115930;27;1905;-63
2023/12/11 15:26:09;;;;;;;;;;;;;;;;;;5137540;27;1168;-69
2023/12/11 15:28:40;;;;;;;;;;;;;;;;;;5137961;27;852;-70
2023/12/11 15:31:05;;;;;;;;;;;;;;;;;;5138094;27;1119;-69
2023/12/11 15:33:31;;;;;;;;;;;;;;;;;;5137797;27;1226;-70
2023/12/11 15:35:56;;;;;;;;;;;;;;;;;;5133716;27;1230;-69
2023/12/11 15:38:21;;;;;;;;;;;;;;;;;;5133581;27;1183;-69
2023/12/11 15:40:46;;;;;;;;;;;;;;;;;;5133665;27;1143;-70
2023/12/11 15:43:12;;;;;;;;;;;;;;;;;;5133612;27;1219;-69
2023/12/11 15:45:37;;;;;;;;;;;;;;;;;;5133678;27;1969;-69
2023/12/11 15:48:02;;;;;;;;;;;;;;;;;;5134131;27;1080;-69
2023/12/11 15:50:28;;;;;;;;;;;;;;;;;;5134264;27;1183;-69
2023/12/11 15:52:53;;;;;;;;;;;;;;;;;;5134357;27;1171;-70
2023/12/11 15:55:19;;;;;;;;;;;;;;;;;;5135124;27;1160;-69
2023/12/11 15:57:45;;;;;;;;;;;;;;;;;;5136111;27;1033;-70
2023/12/11 16:00:11;;;;;;;;;;;;;;;;;;5136057;27;919;-69
2023/12/11 16:02:40;;;;;;;;;;;;;;;;;;5136441;27;955;-70
2023/12/11 16:05:05;;;;;;;;;;;;;;;;;;5136138;27;1901;-70
2023/12/11 16:07:30;;;;;;;;;;;;;;;;;;5137182;27;812;-70
2023/12/11 16:09:55;;;;;;;;;;;;;;;;;;5118613;27;876;-69
2023/12/11 16:12:21;;;;;;;;;;;;;;;;;;5118349;27;1226;-69
2023/12/11 16:14:47;;;;;;;;;;;;;;;;;;5130282;27;1100;-69
2023/12/11 16:17:12;;;;;;;;;;;;;;;;;;5133596;27;1187;-70
2023/12/11 16:19:37;;;;;;;;;;;;;;;;;;5134458;27;1156;-70
2023/12/11 16:22:03;;;;;;;;;;;;;;;;;;5115648;27;1326;-69
2023/12/11 16:24:28;;;;;;;;;;;;;;;;;;5133983;27;1963;-70
2023/12/11 16:26:53;;;;;;;;;;;;;;;;;;5136969;27;820;-70
2023/12/11 16:29:20;;;;;;;;;;;;;;;;;;5133934;27;1246;-70
2023/12/11 16:31:46;;;;;;;;;;;;;;;;;;5133305;27;1152;-69
2023/12/11 16:34:11;;;;;;;;;;;;;;;;;;5133524;27;1250;-70
2023/12/11 16:36:37;;;;;;;;;;;;;;;;;;5115021;27;1341;-69
2023/12/11 16:39:03;;;;;;;;;;;;;;;;;;5133499;27;1143;-69
2023/12/11 16:41:28;;;;;;;;;;;;;;;;;;5132055;27;1370;-71
2023/12/11 16:43:54;;;;;;;;;;;;;;;;;;5137253;27;1905;-70
2023/12/11 16:46:20;;;;;;;;;;;;;;;;;;5136216;27;851;-70
2023/12/11 16:48:46;;;;;;;;;;;;;;;;;;5136895;27;891;-69
2023/12/11 16:51:11;;;;;;;;;;;;;;;;;;5136152;27;886;-70
2023/12/11 16:53:38;;;;;;;;;;;;;;;;;;5117749;27;861;-70
2023/12/11 16:56:03;;;;;;;;;;;;;;;;;;5118426;27;888;-70
2023/12/11 16:58:28;;;;;;;;;;;;;;;;;;5136623;27;868;-69
2023/12/11 17:00:54;;;;;;;;;;;;;;;;;;5136183;27;896;-69
2023/12/11 17:03:19;;;;;;;;;;;;;;;;;;5136494;27;843;-69